createdAt,value
2022-09-10T00:00:10.238Z,96.99
2022-09-10T00:01:10.229Z,97.09
2022-09-10T00:02:10.266Z,97.20
2022-09-10T00:03:10.253Z,97.30
2022-09-10T00:04:10.209Z,97.40
2022-09-10T00:05:10.205Z,97.40
2022-09-10T00:06:10.174Z,97.50
2022-09-10T00:07:10.166Z,97.50
2022-09-10T00:08:10.154Z,97.60
2022-09-10T00:09:10.161Z,97.71
2022-09-10T00:10:10.134Z,97.71
2022-09-10T00:11:10.124Z,97.60
2022-09-10T00:12:10.948Z,97.50
2022-09-10T00:13:10.108Z,97.50
2022-09-10T00:14:10.102Z,97.40
2022-09-10T00:15:10.081Z,97.30
2022-09-10T00:16:10.093Z,97.30
2022-09-10T00:17:10.062Z,97.30
2022-09-10T00:18:10.071Z,97.20
2022-09-10T00:19:10.055Z,97.24
2022-09-10T00:20:10.034Z,97.09
2022-09-10T00:21:10.040Z,97.09
2022-09-10T00:22:10.008Z,97.09
2022-09-10T00:23:09.998Z,96.99
2022-09-10T00:24:09.996Z,96.99
2022-09-10T00:25:09.974Z,96.99
2022-09-10T00:26:09.963Z,96.79
2022-09-10T00:27:10.954Z,96.83
2022-09-10T00:28:09.940Z,96.94
2022-09-10T00:29:09.945Z,97.04
2022-09-10T00:30:09.921Z,97.04
2022-09-10T00:31:09.935Z,97.14
2022-09-10T00:32:09.901Z,97.14
2022-09-10T00:33:09.897Z,97.14
2022-09-10T00:34:09.980Z,97.14
2022-09-10T00:35:09.869Z,97.04
2022-09-10T00:36:09.857Z,97.04
2022-09-10T00:37:09.875Z,97.04
2022-09-10T00:38:09.844Z,97.09
2022-09-10T00:39:09.841Z,96.99
2022-09-10T00:40:09.873Z,96.99
2022-09-10T00:41:09.807Z,96.99
2022-09-10T00:42:09.795Z,97.09
2022-09-10T00:43:09.786Z,97.09
2022-09-10T00:44:09.789Z,96.79
2022-09-10T00:45:09.764Z,96.69
2022-09-10T00:46:09.755Z,96.69
2022-09-10T00:47:09.745Z,96.79
2022-09-10T00:48:09.744Z,96.79
2022-09-10T00:49:09.739Z,96.59
2022-09-10T00:50:09.711Z,96.59
2022-09-10T00:51:09.705Z,96.59
2022-09-10T00:52:09.690Z,96.59
2022-09-10T00:53:09.702Z,96.48
2022-09-10T00:54:09.682Z,96.48
2022-09-10T00:55:09.661Z,96.59
2022-09-10T00:56:09.648Z,96.69
2022-09-10T00:57:09.638Z,96.69
2022-09-10T00:58:09.631Z,96.48
2022-09-10T00:59:09.633Z,96.59
2022-09-10T01:00:09.605Z,96.59
2022-09-10T01:01:09.662Z,96.69
2022-09-10T01:02:09.620Z,96.69
2022-09-10T01:03:09.577Z,96.79
2022-09-10T01:04:09.580Z,96.79
2022-09-10T01:05:09.555Z,96.79
2022-09-10T01:06:09.542Z,96.79
2022-09-10T01:07:09.540Z,96.89
2022-09-10T01:08:09.525Z,96.89
2022-09-10T01:09:09.550Z,96.99
2022-09-10T01:10:09.514Z,97.20
2022-09-10T01:11:09.491Z,97.20
2022-09-10T01:12:09.479Z,97.20
2022-09-10T01:13:09.480Z,97.09
2022-09-10T01:14:09.459Z,97.09
2022-09-10T01:15:09.472Z,97.09
2022-09-10T01:16:09.480Z,97.09
2022-09-10T01:17:09.452Z,97.09
2022-09-10T01:18:09.418Z,97.20
2022-09-10T01:19:09.427Z,97.09
2022-09-10T01:20:09.402Z,97.20
2022-09-10T01:21:09.386Z,97.20
2022-09-10T01:22:09.376Z,97.20
2022-09-10T01:23:09.365Z,97.20
2022-09-10T01:24:09.352Z,97.20
2022-09-10T01:25:09.378Z,97.20
2022-09-10T01:26:09.335Z,97.25
2022-09-10T01:27:09.326Z,97.15
2022-09-10T01:28:09.311Z,97.15
2022-09-10T01:29:09.302Z,97.30
2022-09-10T01:30:09.303Z,97.35
2022-09-10T01:31:09.289Z,97.45
2022-09-10T01:32:09.272Z,97.45
2022-09-10T01:33:09.262Z,97.45
2022-09-10T01:34:09.249Z,97.45
2022-09-10T01:35:09.254Z,97.35
2022-09-10T01:36:09.227Z,97.35
2022-09-10T01:37:09.220Z,97.15
2022-09-10T01:38:09.207Z,97.05
2022-09-10T01:39:09.198Z,97.15
2022-09-10T01:40:09.280Z,97.25
2022-09-10T01:41:09.197Z,97.15
2022-09-10T01:42:09.167Z,96.84
2022-09-10T01:43:09.175Z,96.84
2022-09-10T01:44:09.150Z,96.84
2022-09-10T01:45:09.151Z,96.95
2022-09-10T01:46:09.125Z,97.05
2022-09-10T01:47:09.115Z,97.15
2022-09-10T01:48:09.107Z,96.95
2022-09-10T01:49:09.092Z,96.84
2022-09-10T01:50:09.095Z,96.75
2022-09-10T01:51:09.073Z,96.84
2022-09-10T01:52:09.060Z,96.84
2022-09-10T01:53:09.051Z,96.84
2022-09-10T01:54:09.043Z,96.95
2022-09-10T01:55:09.156Z,96.95
2022-09-10T01:56:09.027Z,96.95
2022-09-10T01:57:09.030Z,97.15
2022-09-10T01:58:09.000Z,97.25
2022-09-10T01:59:08.990Z,97.25
2022-09-10T02:00:09.015Z,97.15
2022-09-10T02:01:09.045Z,97.25
2022-09-10T02:02:09.036Z,97.25
2022-09-10T02:03:08.948Z,97.15
2022-09-10T02:04:08.938Z,97.25
2022-09-10T02:05:08.940Z,97.25
2022-09-10T02:06:08.914Z,97.25
2022-09-10T02:07:08.906Z,97.35
2022-09-10T02:08:08.895Z,97.35
2022-09-10T02:09:08.884Z,97.35
2022-09-10T02:10:08.890Z,97.25
2022-09-10T02:11:08.865Z,97.15
2022-09-10T02:12:08.853Z,97.15
2022-09-10T02:13:08.864Z,97.25
2022-09-10T02:14:08.835Z,97.05
2022-09-10T02:15:08.839Z,96.95
2022-09-10T02:16:08.835Z,96.95
2022-09-10T02:17:08.802Z,96.95
2022-09-10T02:18:08.794Z,96.84
2022-09-10T02:19:08.779Z,96.75
2022-09-10T02:20:08.789Z,96.64
2022-09-10T02:21:08.795Z,96.64
2022-09-10T02:22:08.750Z,96.44
2022-09-10T02:23:08.739Z,96.14
2022-09-10T02:24:08.730Z,96.14
2022-09-10T02:25:08.734Z,96.34
2022-09-10T02:26:08.706Z,96.34
2022-09-10T02:27:08.698Z,96.19
2022-09-10T02:28:08.688Z,96.14
2022-09-10T02:29:08.700Z,96.09
2022-09-10T02:30:08.685Z,96.23
2022-09-10T02:31:08.701Z,96.19
2022-09-10T02:32:08.645Z,96.19
2022-09-10T02:33:08.636Z,96.19
2022-09-10T02:34:08.632Z,96.39
2022-09-10T02:35:08.626Z,96.44
2022-09-10T02:36:08.605Z,96.50
2022-09-10T02:37:08.596Z,96.34
2022-09-10T02:38:08.582Z,95.94
2022-09-10T02:39:08.572Z,96.03
2022-09-10T02:40:08.620Z,96.14
2022-09-10T02:41:08.552Z,96.14
2022-09-10T02:42:08.540Z,96.34
2022-09-10T02:43:08.536Z,96.34
2022-09-10T02:44:08.522Z,96.03
2022-09-10T02:45:08.547Z,95.63
2022-09-10T02:46:08.500Z,95.32
2022-09-10T02:47:08.490Z,95.28
2022-09-10T02:48:08.478Z,95.32
2022-09-10T02:49:08.467Z,95.38
2022-09-10T02:50:08.456Z,95.79
2022-09-10T02:51:08.462Z,95.79
2022-09-10T02:52:08.437Z,95.58
2022-09-10T02:53:08.428Z,95.63
2022-09-10T02:54:08.415Z,95.58
2022-09-10T02:55:08.413Z,95.79
2022-09-10T02:56:08.407Z,95.38
2022-09-10T02:57:08.390Z,95.48
2022-09-10T02:58:08.370Z,95.38
2022-09-10T02:59:08.364Z,95.58
2022-09-10T03:00:08.351Z,95.79
2022-09-10T03:01:08.426Z,95.83
2022-09-10T03:02:08.356Z,95.79
2022-09-10T03:03:08.323Z,95.89
2022-09-10T03:04:08.312Z,96.09
2022-09-10T03:05:08.392Z,96.09
2022-09-10T03:06:08.303Z,96.09
2022-09-10T03:07:08.280Z,95.99
2022-09-10T03:08:08.268Z,96.09
2022-09-10T03:09:08.264Z,96.09
2022-09-10T03:10:08.250Z,96.19
2022-09-10T03:11:08.255Z,95.58
2022-09-10T03:12:08.228Z,95.53
2022-09-10T03:13:08.219Z,95.58
2022-09-10T03:14:08.209Z,95.32
2022-09-10T03:15:08.198Z,95.38
2022-09-10T03:16:08.219Z,95.68
2022-09-10T03:17:08.196Z,95.79
2022-09-10T03:18:08.166Z,95.79
2022-09-10T03:19:08.155Z,95.79
2022-09-10T03:20:08.148Z,95.58
2022-09-10T03:21:08.151Z,94.00
2022-09-10T03:22:08.123Z,93.80
2022-09-10T03:23:08.123Z,94.31
2022-09-10T03:24:08.759Z,94.87
2022-09-10T03:25:08.102Z,95.48
2022-09-10T03:26:08.098Z,95.58
2022-09-10T03:27:08.076Z,95.28
2022-09-10T03:28:08.062Z,95.18
2022-09-10T03:29:08.049Z,95.38
2022-09-10T03:30:08.038Z,95.28
2022-09-10T03:31:08.031Z,95.48
2022-09-10T03:32:08.033Z,95.58
2022-09-10T03:33:08.028Z,95.79
2022-09-10T03:34:07.998Z,95.58
2022-09-10T03:35:07.988Z,95.38
2022-09-10T03:36:07.976Z,95.58
2022-09-10T03:37:07.985Z,95.99
2022-09-10T03:38:07.959Z,96.09
2022-09-10T03:39:07.948Z,96.19
2022-09-10T03:40:07.966Z,96.39
2022-09-10T03:41:07.944Z,95.83
2022-09-10T03:42:07.913Z,95.73
2022-09-10T03:43:07.905Z,95.73
2022-09-10T03:44:07.895Z,95.63
2022-09-10T03:45:07.888Z,94.61
2022-09-10T03:46:07.910Z,94.10
2022-09-10T03:47:07.877Z,94.10
2022-09-10T03:48:07.851Z,94.61
2022-09-10T03:49:07.859Z,94.82
2022-09-10T03:50:07.832Z,95.32
2022-09-10T03:51:07.821Z,95.73
2022-09-10T03:52:07.822Z,95.63
2022-09-10T03:53:07.796Z,95.22
2022-09-10T03:54:07.838Z,95.22
2022-09-10T03:55:07.776Z,95.53
2022-09-10T03:56:07.771Z,95.42
2022-09-10T03:57:07.775Z,95.42
2022-09-10T03:58:07.747Z,95.42
2022-09-10T03:59:07.742Z,95.42
2022-09-10T04:00:07.727Z,95.42
2022-09-10T04:01:07.751Z,95.42
2022-09-10T04:02:07.774Z,95.63
2022-09-10T04:03:07.692Z,95.94
2022-09-10T04:04:07.685Z,95.94
2022-09-10T04:05:07.719Z,95.22
2022-09-10T04:06:07.664Z,95.02
2022-09-10T04:07:07.663Z,95.32
2022-09-10T04:08:07.644Z,95.42
2022-09-10T04:09:07.631Z,95.53
2022-09-10T04:10:07.648Z,95.63
2022-09-10T04:11:07.610Z,95.73
2022-09-10T04:12:07.614Z,95.73
2022-09-10T04:13:07.592Z,95.83
2022-09-10T04:14:07.579Z,95.53
2022-09-10T04:15:07.570Z,95.32
2022-09-10T04:16:07.636Z,95.32
2022-09-10T04:17:07.559Z,95.63
2022-09-10T04:18:07.537Z,95.94
2022-09-10T04:19:07.524Z,95.83
2022-09-10T04:20:07.522Z,95.73
2022-09-10T04:21:07.524Z,95.63
2022-09-10T04:22:07.527Z,95.63
2022-09-10T04:23:07.491Z,95.73
2022-09-10T04:24:07.486Z,96.03
2022-09-10T04:25:07.462Z,96.14
2022-09-10T04:26:07.468Z,96.23
2022-09-10T04:27:07.440Z,96.44
2022-09-10T04:28:07.436Z,96.39
2022-09-10T04:29:07.419Z,95.53
2022-09-10T04:30:07.412Z,94.41
2022-09-10T04:31:07.412Z,94.10
2022-09-10T04:32:07.394Z,94.61
2022-09-10T04:33:07.379Z,95.12
2022-09-10T04:34:07.369Z,94.92
2022-09-10T04:35:07.358Z,94.51
2022-09-10T04:36:07.362Z,94.92
2022-09-10T04:37:07.361Z,95.22
2022-09-10T04:38:07.331Z,95.02
2022-09-10T04:39:07.315Z,94.31
2022-09-10T04:40:07.341Z,94.51
2022-09-10T04:41:07.309Z,94.82
2022-09-10T04:42:07.287Z,95.02
2022-09-10T04:43:07.295Z,95.12
2022-09-10T04:44:07.268Z,94.31
2022-09-10T04:45:07.254Z,94.10
2022-09-10T04:46:07.354Z,94.41
2022-09-10T04:47:07.235Z,94.51
2022-09-10T04:48:07.477Z,94.61
2022-09-10T04:49:07.211Z,94.71
2022-09-10T04:50:07.204Z,94.92
2022-09-10T04:51:16.054Z,94.71
2022-09-10T04:52:08.178Z,94.41
2022-09-10T04:53:07.190Z,94.71
2022-09-10T04:54:07.158Z,95.12
2022-09-10T04:55:07.152Z,95.32
2022-09-10T04:56:07.163Z,95.53
2022-09-10T04:57:07.150Z,95.73
2022-09-10T04:58:07.119Z,95.73
2022-09-10T04:59:07.102Z,95.83
2022-09-10T05:00:07.099Z,95.94
2022-09-10T05:01:07.151Z,95.83
2022-09-10T05:02:07.103Z,95.73
2022-09-10T05:03:07.064Z,95.83
2022-09-10T05:04:07.054Z,96.03
2022-09-10T05:05:07.042Z,96.23
2022-09-10T05:06:07.052Z,96.44
2022-09-10T05:07:07.019Z,96.44
2022-09-10T05:08:07.021Z,96.44
2022-09-10T05:09:07.019Z,96.54
2022-09-10T05:10:06.991Z,96.64
2022-09-10T05:11:06.992Z,96.75
2022-09-10T05:12:06.968Z,96.64
2022-09-10T05:13:06.954Z,96.64
2022-09-10T05:14:06.948Z,96.64
2022-09-10T05:15:06.937Z,96.75
2022-09-10T05:16:06.989Z,96.23
2022-09-10T05:17:06.916Z,95.83
2022-09-10T05:18:06.908Z,95.94
2022-09-10T05:19:06.898Z,96.03
2022-09-10T05:20:06.889Z,96.03
2022-09-10T05:21:06.894Z,95.94
2022-09-10T05:22:06.897Z,95.94
2022-09-10T05:23:06.852Z,95.73
2022-09-10T05:24:06.844Z,95.42
2022-09-10T05:25:06.854Z,95.53
2022-09-10T05:26:06.838Z,95.73
2022-09-10T05:27:06.814Z,95.94
2022-09-10T05:28:06.801Z,96.14
2022-09-10T05:29:06.788Z,96.23
2022-09-10T05:30:06.789Z,96.44
2022-09-10T05:31:06.783Z,96.64
2022-09-10T05:32:06.759Z,96.75
2022-09-10T05:33:06.751Z,96.84
2022-09-10T05:34:06.741Z,96.95
2022-09-10T05:35:06.726Z,96.95
2022-09-10T05:36:06.732Z,97.05
2022-09-10T05:37:07.550Z,97.05
2022-09-10T05:38:06.698Z,97.05
2022-09-10T05:39:06.688Z,96.84
2022-09-10T05:40:06.719Z,96.64
2022-09-10T05:41:06.700Z,96.64
2022-09-10T05:42:06.654Z,96.64
2022-09-10T05:43:06.658Z,96.75
2022-09-10T05:44:06.635Z,96.84
2022-09-10T05:45:06.621Z,96.95
2022-09-10T05:46:06.688Z,96.95
2022-09-10T05:47:06.601Z,96.95
2022-09-10T05:48:06.591Z,96.95
2022-09-10T05:49:06.577Z,96.95
2022-09-10T05:50:06.574Z,96.95
2022-09-10T05:51:06.571Z,96.95
2022-09-10T05:52:06.558Z,97.05
2022-09-10T05:53:06.550Z,97.05
2022-09-10T05:54:06.529Z,97.05
2022-09-10T05:55:06.523Z,97.05
2022-09-10T05:56:06.521Z,96.95
2022-09-10T05:57:06.516Z,96.84
2022-09-10T05:58:06.486Z,96.95
2022-09-10T05:59:06.480Z,96.95
2022-09-10T06:00:06.493Z,97.05
2022-09-10T06:01:06.472Z,97.15
2022-09-10T06:02:06.589Z,97.25
2022-09-10T06:03:06.550Z,97.15
2022-09-10T06:04:06.423Z,97.05
2022-09-10T06:05:06.418Z,96.34
2022-09-10T06:06:06.470Z,96.03
2022-09-10T06:07:06.388Z,95.94
2022-09-10T06:08:08.808Z,96.23
2022-09-10T06:09:06.371Z,96.14
2022-09-10T06:10:06.361Z,96.03
2022-09-10T06:11:06.362Z,95.73
2022-09-10T06:12:06.339Z,95.73
2022-09-10T06:13:06.350Z,96.03
2022-09-10T06:14:06.323Z,96.44
2022-09-10T06:15:06.308Z,96.75
2022-09-10T06:16:06.406Z,96.70
2022-09-10T06:17:06.283Z,96.70
2022-09-10T06:18:06.288Z,96.80
2022-09-10T06:19:06.266Z,96.90
2022-09-10T06:20:06.257Z,96.90
2022-09-10T06:21:06.261Z,96.80
2022-09-10T06:22:06.241Z,96.70
2022-09-10T06:23:06.222Z,96.80
2022-09-10T06:24:06.215Z,96.80
2022-09-10T06:25:06.215Z,96.80
2022-09-10T06:26:06.206Z,96.70
2022-09-10T06:27:06.181Z,96.90
2022-09-10T06:28:06.174Z,96.90
2022-09-10T06:29:06.179Z,96.80
2022-09-10T06:30:06.151Z,96.50
2022-09-10T06:31:06.200Z,96.39
2022-09-10T06:32:07.074Z,96.19
2022-09-10T06:33:06.120Z,95.99
2022-09-10T06:34:06.109Z,95.99
2022-09-10T06:35:06.096Z,96.09
2022-09-10T06:36:06.102Z,96.09
2022-09-10T06:37:06.081Z,96.09
2022-09-10T06:38:06.064Z,96.30
2022-09-10T06:39:06.054Z,96.39
2022-09-10T06:40:06.118Z,96.60
2022-09-10T06:41:06.054Z,96.70
2022-09-10T06:42:06.022Z,96.90
2022-09-10T06:43:06.018Z,96.90
2022-09-10T06:44:06.007Z,96.70
2022-09-10T06:45:06.011Z,96.60
2022-09-10T06:46:06.052Z,96.70
2022-09-10T06:48:37.552Z,97.20
2022-09-10T06:49:06.949Z,97.31
2022-09-10T06:50:05.939Z,97.41
2022-09-10T06:51:05.928Z,97.61
2022-09-10T06:52:05.939Z,97.61
2022-09-10T06:53:05.905Z,97.61
2022-09-10T06:54:05.896Z,97.61
2022-09-10T06:55:05.887Z,97.20
2022-09-10T06:56:05.884Z,97.11
2022-09-10T06:57:05.879Z,97.20
2022-09-10T06:58:05.856Z,97.41
2022-09-10T06:59:05.844Z,97.51
2022-09-10T07:00:05.836Z,97.31
2022-09-10T07:01:05.896Z,97.20
2022-09-10T07:02:05.864Z,97.41
2022-09-10T07:03:05.802Z,97.31
2022-09-10T07:04:05.800Z,97.31
2022-09-10T07:05:05.779Z,97.20
2022-09-10T07:06:05.776Z,97.31
2022-09-10T07:07:05.772Z,97.51
2022-09-10T07:08:05.751Z,97.56
2022-09-10T07:09:05.737Z,97.67
2022-09-10T07:10:05.729Z,97.71
2022-09-10T07:11:05.721Z,97.81
2022-09-10T07:12:05.746Z,97.87
2022-09-10T07:13:05.701Z,98.02
2022-09-10T07:14:05.687Z,98.02
2022-09-10T07:15:05.675Z,97.92
2022-09-10T07:16:05.743Z,97.92
2022-09-10T07:17:05.693Z,97.92
2022-09-10T07:18:05.645Z,97.81
2022-09-10T07:19:05.634Z,97.71
2022-09-10T07:20:05.630Z,97.71
2022-09-10T07:21:05.612Z,97.81
2022-09-10T07:22:05.621Z,97.92
2022-09-10T07:23:07.312Z,97.92
2022-09-10T07:24:05.584Z,98.12
2022-09-10T07:25:05.574Z,97.81
2022-09-10T07:26:05.564Z,97.61
2022-09-10T07:27:05.564Z,97.56
2022-09-10T07:28:05.541Z,97.87
2022-09-10T07:29:05.528Z,97.47
2022-09-10T07:30:05.520Z,97.00
2022-09-10T07:31:05.534Z,96.96
2022-09-10T07:32:05.534Z,97.26
2022-09-10T07:33:05.512Z,97.47
2022-09-10T07:34:05.478Z,97.47
2022-09-10T07:35:05.472Z,97.31
2022-09-10T07:36:05.458Z,97.16
2022-09-10T07:37:05.514Z,97.26
2022-09-10T07:38:05.441Z,97.56
2022-09-10T07:39:05.427Z,97.87
2022-09-10T07:40:05.455Z,97.87
2022-09-10T07:41:05.413Z,97.87
2022-09-10T07:42:05.406Z,96.45
2022-09-10T07:43:05.388Z,96.15
2022-09-10T07:44:05.371Z,96.45
2022-09-10T07:45:05.370Z,96.86
2022-09-10T07:46:05.513Z,97.06
2022-09-10T07:47:05.362Z,97.16
2022-09-10T07:48:05.332Z,97.26
2022-09-10T07:49:05.349Z,97.16
2022-09-10T07:50:05.310Z,96.86
2022-09-10T07:51:05.314Z,96.66
2022-09-10T07:52:05.294Z,96.55
2022-09-10T07:53:05.281Z,96.66
2022-09-10T07:54:05.271Z,96.75
2022-09-10T07:55:05.262Z,97.06
2022-09-10T07:56:05.289Z,96.55
2022-09-10T07:57:05.243Z,95.74
2022-09-10T07:58:05.230Z,95.54
2022-09-10T07:59:05.224Z,95.64
2022-09-10T08:00:05.207Z,95.64
2022-09-10T08:01:05.229Z,96.04
2022-09-10T08:02:05.206Z,95.84
2022-09-10T08:03:05.176Z,95.74
2022-09-10T08:04:05.403Z,95.94
2022-09-10T08:05:05.180Z,96.25
2022-09-10T08:06:05.157Z,96.41
2022-09-10T08:07:05.156Z,96.51
2022-09-10T08:08:05.128Z,96.41
2022-09-10T08:09:05.116Z,96.20
2022-09-10T08:10:05.105Z,95.79
2022-09-10T08:11:08.565Z,95.70
2022-09-10T08:12:06.086Z,96.30
2022-09-10T08:13:05.073Z,96.51
2022-09-10T08:14:05.063Z,96.71
2022-09-10T08:15:05.055Z,97.11
2022-09-10T08:16:05.145Z,97.22
2022-09-10T08:17:05.042Z,97.22
2022-09-10T08:18:05.034Z,96.81
2022-09-10T08:19:05.013Z,96.71
2022-09-10T08:20:05.037Z,96.71
2022-09-10T08:21:05.022Z,96.61
2022-09-10T08:22:04.978Z,96.71
2022-09-10T08:23:04.968Z,96.91
2022-09-10T08:24:04.958Z,96.71
2022-09-10T08:25:04.950Z,96.61
2022-09-10T08:26:04.951Z,96.51
2022-09-10T08:27:04.929Z,96.51
2022-09-10T08:28:04.916Z,96.51
2022-09-10T08:29:04.908Z,96.41
2022-09-10T08:30:04.905Z,96.20
2022-09-10T08:31:04.922Z,95.79
2022-09-10T08:32:04.876Z,95.59
2022-09-10T08:33:04.871Z,95.70
2022-09-10T08:34:04.853Z,96.10
2022-09-10T08:35:04.857Z,96.41
2022-09-10T08:36:04.854Z,96.51
2022-09-10T08:37:04.845Z,96.51
2022-09-10T08:38:04.809Z,96.61
2022-09-10T08:39:08.224Z,96.71
2022-09-10T08:40:04.839Z,96.71
2022-09-10T08:41:04.799Z,97.02
2022-09-10T08:42:04.774Z,96.55
2022-09-10T08:43:04.764Z,96.66
2022-09-10T08:44:04.751Z,97.26
2022-09-10T08:45:04.742Z,97.56
2022-09-10T08:46:04.878Z,97.16
2022-09-10T08:47:04.725Z,97.26
2022-09-10T08:48:04.708Z,97.32
2022-09-10T08:49:04.711Z,97.32
2022-09-10T08:50:04.707Z,97.11
2022-09-10T08:51:04.690Z,96.81
2022-09-10T08:52:04.666Z,97.02
2022-09-10T08:53:04.683Z,97.02
2022-09-10T08:54:05.617Z,97.11
2022-09-10T08:55:04.639Z,97.32
2022-09-10T08:56:04.640Z,97.11
2022-09-10T08:57:04.619Z,97.22
2022-09-10T08:58:04.635Z,97.42
2022-09-10T08:59:04.599Z,97.62
2022-09-10T09:00:04.595Z,97.52
2022-09-10T09:01:04.800Z,97.52
2022-09-10T09:02:04.647Z,97.62
2022-09-10T09:03:05.181Z,97.62
2022-09-10T09:04:06.286Z,97.52
2022-09-10T09:05:04.540Z,97.32
2022-09-10T09:06:04.536Z,97.42
2022-09-10T09:07:04.517Z,97.47
2022-09-10T09:08:04.505Z,97.58
2022-09-10T09:09:04.518Z,97.43
2022-09-10T09:10:04.485Z,96.92
2022-09-10T09:11:04.488Z,96.01
2022-09-10T09:12:04.462Z,95.86
2022-09-10T09:13:04.454Z,95.86
2022-09-10T09:14:04.442Z,95.56
2022-09-10T09:15:08.722Z,94.55
2022-09-10T09:16:04.495Z,94.75
2022-09-10T09:17:04.413Z,94.65
2022-09-10T09:18:04.400Z,94.75
2022-09-10T09:19:04.393Z,94.65
2022-09-10T09:20:04.381Z,94.75
2022-09-10T09:21:04.387Z,95.06
2022-09-10T09:22:04.358Z,95.46
2022-09-10T09:23:04.349Z,95.36
2022-09-10T09:24:16.976Z,94.95
2022-09-10T09:25:05.379Z,94.95
2022-09-10T09:26:04.336Z,94.65
2022-09-10T09:27:04.308Z,94.75
2022-09-10T09:28:04.300Z,94.85
2022-09-10T09:29:04.288Z,95.42
2022-09-10T09:30:05.129Z,95.57
2022-09-10T09:31:08.735Z,94.96
2022-09-10T09:32:05.263Z,94.56
2022-09-10T09:33:04.249Z,95.07
2022-09-10T09:34:04.264Z,95.83
2022-09-10T09:35:04.232Z,95.73
2022-09-10T09:36:04.228Z,94.72
2022-09-10T09:37:04.210Z,94.72
2022-09-10T09:38:04.193Z,94.11
2022-09-10T09:39:04.184Z,94.21
2022-09-10T09:40:04.311Z,93.60
2022-09-10T09:41:04.199Z,92.69
2022-09-10T09:42:04.174Z,93.40
2022-09-10T09:43:04.149Z,94.17
2022-09-10T09:44:04.129Z,94.47
2022-09-10T09:45:04.119Z,93.20
2022-09-10T09:46:04.146Z,92.96
2022-09-10T09:47:04.105Z,92.65
2022-09-10T09:48:04.088Z,91.28
2022-09-10T09:49:04.083Z,91.49
2022-09-10T09:50:04.068Z,91.08
2022-09-10T09:51:04.073Z,91.64
2022-09-10T09:52:04.050Z,91.74
2022-09-10T09:53:04.038Z,91.94
2022-09-10T09:54:39.159Z,91.44
2022-09-10T09:55:20.414Z,91.03
2022-09-10T09:56:05.014Z,91.85
2022-09-10T09:57:04.022Z,91.54
2022-09-10T09:58:03.983Z,91.03
2022-09-10T09:59:03.975Z,90.94
2022-09-10T10:00:03.962Z,91.44
2022-09-10T10:01:04.074Z,93.26
2022-09-10T10:02:04.010Z,93.56
2022-09-10T10:03:03.930Z,93.05
2022-09-10T10:04:03.921Z,91.54
2022-09-10T10:05:03.910Z,91.24
2022-09-10T10:06:03.902Z,91.44
2022-09-10T10:07:03.902Z,90.53
2022-09-10T10:08:03.879Z,90.94
2022-09-10T10:09:03.871Z,91.14
2022-09-10T10:10:03.907Z,91.80
2022-09-10T10:11:03.863Z,92.00
2022-09-10T10:12:03.835Z,90.99
2022-09-10T10:13:03.851Z,90.24
2022-09-10T10:14:03.815Z,89.64
2022-09-10T10:15:03.807Z,89.74
2022-09-10T10:16:03.866Z,90.24
2022-09-10T10:17:03.785Z,90.55
2022-09-10T10:18:03.777Z,90.61
2022-09-10T10:19:04.209Z,90.10
2022-09-10T10:20:03.753Z,89.94
2022-09-10T10:21:03.768Z,89.64
2022-09-10T10:22:03.732Z,89.03
2022-09-10T10:23:03.724Z,89.43
2022-09-10T10:24:03.712Z,90.24
2022-09-10T10:25:03.706Z,91.86
2022-09-10T10:26:03.704Z,90.14
2022-09-10T10:27:03.685Z,89.84
2022-09-10T10:28:03.673Z,90.10
2022-09-10T10:29:03.685Z,91.82
2022-09-10T10:30:03.672Z,89.59
2022-09-10T10:31:03.697Z,88.48
2022-09-10T10:32:05.674Z,89.29
2022-09-10T10:33:03.655Z,89.29
2022-09-10T10:34:03.610Z,89.55
2022-09-10T10:35:03.604Z,88.39
2022-09-10T10:36:03.605Z,88.39
2022-09-10T10:37:03.580Z,89.09
2022-09-10T10:38:03.571Z,89.50
2022-09-10T10:39:03.565Z,88.08
2022-09-10T10:40:03.621Z,88.43
2022-09-10T10:41:03.551Z,89.29
2022-09-10T10:42:03.530Z,90.70
2022-09-10T10:43:03.519Z,88.83
2022-09-10T10:44:03.507Z,88.43
2022-09-10T10:45:03.522Z,89.84
2022-09-10T10:46:03.570Z,90.85
2022-09-10T10:47:03.478Z,90.55
2022-09-10T10:48:03.469Z,89.34
2022-09-10T10:49:03.919Z,89.03
2022-09-10T10:50:03.455Z,89.74
2022-09-10T10:51:03.452Z,88.77
2022-09-10T10:52:03.426Z,90.59
2022-09-10T10:53:03.418Z,91.50
2022-09-10T10:54:03.403Z,91.19
2022-09-10T10:55:03.396Z,92.10
2022-09-10T10:56:03.404Z,92.41
2022-09-10T10:57:03.375Z,91.90
2022-09-10T10:58:03.368Z,92.30
2022-09-10T10:59:03.355Z,91.76
2022-09-10T11:00:03.346Z,91.76
2022-09-10T11:01:03.367Z,91.86
2022-09-10T11:02:03.437Z,92.32
2022-09-10T11:03:03.320Z,92.82
2022-09-10T11:04:03.302Z,92.42
2022-09-10T11:05:03.295Z,89.79
2022-09-10T11:06:03.295Z,89.19
2022-09-10T11:07:03.273Z,89.79
2022-09-10T11:08:03.276Z,88.79
2022-09-10T11:09:03.255Z,88.59
2022-09-10T11:10:03.244Z,89.39
2022-09-10T11:11:03.248Z,89.90
2022-09-10T11:12:03.221Z,91.51
2022-09-10T11:13:03.211Z,90.66
2022-09-10T11:14:03.203Z,90.97
2022-09-10T11:15:03.187Z,90.16
2022-09-10T11:16:03.320Z,88.45
2022-09-10T11:17:03.191Z,88.75
2022-09-10T11:18:03.157Z,89.05
2022-09-10T11:19:03.147Z,90.46
2022-09-10T11:20:27.252Z,89.75
2022-09-10T11:21:04.153Z,87.84
2022-09-10T11:22:03.117Z,87.74
2022-09-10T11:23:03.106Z,86.83
2022-09-10T11:24:03.103Z,87.34
2022-09-10T11:25:03.086Z,87.84
2022-09-10T11:26:03.076Z,89.55
2022-09-10T11:27:03.080Z,88.04
2022-09-10T11:28:03.056Z,88.65
2022-09-10T11:29:03.044Z,89.91
2022-09-10T11:30:03.037Z,90.32
2022-09-10T11:31:03.087Z,90.62
2022-09-10T11:32:03.026Z,88.46
2022-09-10T11:33:03.027Z,87.55
2022-09-10T11:34:02.999Z,88.36
2022-09-10T11:35:02.990Z,88.32
2022-09-10T11:36:02.984Z,86.71
2022-09-10T11:37:02.968Z,86.65
2022-09-10T11:38:02.957Z,87.11
2022-09-10T11:39:02.943Z,88.72
2022-09-10T11:40:03.027Z,83.32
2022-09-10T11:41:02.937Z,84.23
2022-09-10T11:42:02.914Z,85.14
2022-09-10T11:43:02.915Z,86.38
2022-09-10T11:44:02.889Z,88.50
2022-09-10T11:45:02.895Z,88.81
2022-09-10T11:46:02.946Z,87.29
2022-09-10T11:47:02.901Z,87.13
2022-09-10T11:48:02.849Z,85.02
2022-09-10T11:49:02.863Z,87.78
2022-09-10T11:50:02.831Z,86.87
2022-09-10T11:51:02.836Z,86.61
2022-09-10T11:52:02.811Z,87.92
2022-09-10T11:53:02.803Z,88.47
2022-09-10T11:54:02.789Z,89.78
2022-09-10T11:55:02.782Z,90.89
2022-09-10T11:56:02.785Z,91.50
2022-09-10T11:57:02.765Z,91.64
2022-09-10T11:58:02.751Z,91.64
2022-09-10T11:59:02.738Z,92.85
2022-09-10T12:00:02.762Z,93.36
2022-09-10T12:01:02.736Z,93.87
2022-09-10T12:02:02.905Z,94.07
2022-09-10T12:03:02.724Z,94.01
2022-09-10T12:04:02.732Z,94.21
2022-09-10T12:05:02.694Z,93.30
2022-09-10T12:06:02.682Z,93.40
2022-09-10T12:07:02.741Z,92.69
2022-09-10T12:08:02.645Z,92.09
2022-09-10T12:09:02.635Z,93.10
2022-09-10T12:10:02.649Z,93.71
2022-09-10T12:11:02.630Z,94.42
2022-09-10T12:12:02.603Z,94.92
2022-09-10T12:13:02.591Z,94.31
2022-09-10T12:14:02.580Z,94.31
2022-09-10T12:15:02.570Z,94.42
2022-09-10T12:16:02.643Z,94.01
2022-09-10T12:17:02.571Z,94.62
2022-09-10T12:18:02.541Z,94.51
2022-09-10T12:19:02.540Z,94.37
2022-09-10T12:20:02.625Z,94.37
2022-09-10T12:21:02.527Z,94.57
2022-09-10T12:22:02.514Z,93.96
2022-09-10T12:23:02.488Z,92.60
2022-09-10T12:24:02.478Z,92.85
2022-09-10T12:25:02.469Z,93.36
2022-09-10T12:26:02.460Z,92.25
2022-09-10T12:27:02.460Z,92.14
2022-09-10T12:28:02.441Z,92.65
2022-09-10T12:29:02.425Z,93.26
2022-09-10T12:30:02.467Z,93.87
2022-09-10T12:31:02.472Z,93.32
2022-09-10T12:32:02.412Z,93.32
2022-09-10T12:33:02.385Z,93.41
2022-09-10T12:34:02.373Z,93.32
2022-09-10T12:35:02.363Z,93.88
2022-09-10T12:36:02.353Z,93.88
2022-09-10T12:37:02.382Z,93.84
2022-09-10T12:38:02.333Z,94.34
2022-09-10T12:39:02.323Z,93.79
2022-09-10T12:40:02.432Z,89.86
2022-09-10T12:41:02.308Z,89.45
2022-09-10T12:42:02.332Z,90.26
2022-09-10T12:43:02.278Z,91.13
2022-09-10T12:44:02.270Z,90.22
2022-09-10T12:45:02.260Z,89.81
2022-09-10T12:46:02.355Z,88.24
2022-09-10T12:47:02.253Z,88.81
2022-09-10T12:48:02.231Z,88.45
2022-09-10T12:49:02.217Z,88.24
2022-09-10T12:50:03.199Z,87.84
2022-09-10T12:51:02.195Z,88.75
2022-09-10T12:52:02.219Z,89.05
2022-09-10T12:53:02.196Z,89.59